sensor_id;sensor_type;location;lat;lon;timestamp;P1;durP1;ratioP1;P2;durP2;ratioP2
78716;SDS011;68045;50.042;14.432;2023-05-07T00:01:48;16.80;;;8.68;;
78716;SDS011;68045;50.042;14.432;2023-05-07T00:05:49;21.33;;;10.25;;
78716;SDS011;68045;50.042;14.432;2023-05-07T00:09:50;15.02;;;8.88;;
78716;SDS011;68045;50.042;14.432;2023-05-07T00:13:51;15.15;;;9.02;;
78716;SDS011;68045;50.042;14.432;2023-05-07T00:17:52;15.98;;;9.15;;
78716;SDS011;68045;50.042;14.432;2023-05-07T00:21:54;17.23;;;9.18;;
78716;SDS011;68045;50.042;14.432;2023-05-07T00:25:56;16.58;;;9.32;;
78716;SDS011;68045;50.042;14.432;2023-05-07T00:29:57;15.48;;;8.98;;
78716;SDS011;68045;50.042;14.432;2023-05-07T00:33:59;17.42;;;9.45;;
78716;SDS011;68045;50.042;14.432;2023-05-07T00:37:59;17.23;;;10.10;;
78716;SDS011;68045;50.042;14.432;2023-05-07T00:42:01;18.63;;;9.82;;
78716;SDS011;68045;50.042;14.432;2023-05-07T00:50:04;18.52;;;9.55;;
78716;SDS011;68045;50.042;14.432;2023-05-07T00:58:08;15.63;;;8.57;;
78716;SDS011;68045;50.042;14.432;2023-05-07T01:02:09;17.17;;;9.40;;
78716;SDS011;68045;50.042;14.432;2023-05-07T01:06:10;19.75;;;10.02;;
78716;SDS011;68045;50.042;14.432;2023-05-07T01:10:14;18.45;;;9.32;;
78716;SDS011;68045;50.042;14.432;2023-05-07T01:14:15;16.58;;;9.30;;
78716;SDS011;68045;50.042;14.432;2023-05-07T01:18:17;20.55;;;9.77;;
78716;SDS011;68045;50.042;14.432;2023-05-07T01:22:26;16.25;;;8.93;;
78716;SDS011;68045;50.042;14.432;2023-05-07T01:26:33;17.45;;;8.40;;
78716;SDS011;68045;50.042;14.432;2023-05-07T01:30:34;13.43;;;8.02;;
78716;SDS011;68045;50.042;14.432;2023-05-07T01:34:39;17.25;;;8.50;;
78716;SDS011;68045;50.042;14.432;2023-05-07T01:38:40;15.90;;;8.40;;
78716;SDS011;68045;50.042;14.432;2023-05-07T01:42:43;13.75;;;8.00;;
78716;SDS011;68045;50.042;14.432;2023-05-07T01:46:43;14.45;;;8.52;;
78716;SDS011;68045;50.042;14.432;2023-05-07T01:50:45;16.48;;;8.95;;
78716;SDS011;68045;50.042;14.432;2023-05-07T01:54:47;19.52;;;9.63;;
78716;SDS011;68045;50.042;14.432;2023-05-07T01:58:49;16.17;;;8.60;;
78716;SDS011;68045;50.042;14.432;2023-05-07T02:02:52;20.15;;;7.85;;
78716;SDS011;68045;50.042;14.432;2023-05-07T02:07:15;16.13;;;8.70;;
78716;SDS011;68045;50.042;14.432;2023-05-07T02:11:17;16.67;;;8.18;;
78716;SDS011;68045;50.042;14.432;2023-05-07T02:15:18;15.68;;;8.98;;
78716;SDS011;68045;50.042;14.432;2023-05-07T02:19:19;18.92;;;8.68;;
78716;SDS011;68045;50.042;14.432;2023-05-07T02:23:21;15.18;;;8.60;;
78716;SDS011;68045;50.042;14.432;2023-05-07T02:27:23;15.75;;;8.57;;
78716;SDS011;68045;50.042;14.432;2023-05-07T02:31:24;14.73;;;8.02;;
78716;SDS011;68045;50.042;14.432;2023-05-07T02:35:25;16.67;;;8.85;;
78716;SDS011;68045;50.042;14.432;2023-05-07T02:39:26;13.60;;;7.93;;
78716;SDS011;68045;50.042;14.432;2023-05-07T02:43:27;14.35;;;7.68;;
78716;SDS011;68045;50.042;14.432;2023-05-07T02:47:28;13.10;;;7.28;;
78716;SDS011;68045;50.042;14.432;2023-05-07T02:51:30;15.35;;;8.18;;
78716;SDS011;68045;50.042;14.432;2023-05-07T02:55:34;18.67;;;8.95;;
78716;SDS011;68045;50.042;14.432;2023-05-07T02:59:35;16.63;;;8.18;;
78716;SDS011;68045;50.042;14.432;2023-05-07T03:03:36;16.05;;;9.15;;
78716;SDS011;68045;50.042;14.432;2023-05-07T03:07:37;16.55;;;9.40;;
78716;SDS011;68045;50.042;14.432;2023-05-07T03:11:38;12.60;;;7.88;;
78716;SDS011;68045;50.042;14.432;2023-05-07T03:15:39;15.27;;;8.90;;
78716;SDS011;68045;50.042;14.432;2023-05-07T03:19:40;15.45;;;8.05;;
78716;SDS011;68045;50.042;14.432;2023-05-07T03:23:41;14.88;;;8.18;;
78716;SDS011;68045;50.042;14.432;2023-05-07T03:27:42;13.68;;;7.97;;
78716;SDS011;68045;50.042;14.432;2023-05-07T03:31:43;12.55;;;7.43;;
78716;SDS011;68045;50.042;14.432;2023-05-07T03:35:44;12.57;;;7.43;;
78716;SDS011;68045;50.042;14.432;2023-05-07T03:39:48;13.63;;;7.53;;
78716;SDS011;68045;50.042;14.432;2023-05-07T03:43:49;12.95;;;7.85;;
78716;SDS011;68045;50.042;14.432;2023-05-07T03:47:51;13.60;;;7.72;;
78716;SDS011;68045;50.042;14.432;2023-05-07T03:51:54;13.32;;;6.90;;
78716;SDS011;68045;50.042;14.432;2023-05-07T03:55:57;12.93;;;7.68;;
78716;SDS011;68045;50.042;14.432;2023-05-07T03:59:58;12.95;;;7.47;;
78716;SDS011;68045;50.042;14.432;2023-05-07T04:04:00;16.33;;;8.68;;
78716;SDS011;68045;50.042;14.432;2023-05-07T04:08:01;17.05;;;8.60;;
78716;SDS011;68045;50.042;14.432;2023-05-07T04:12:10;20.73;;;10.10;;
78716;SDS011;68045;50.042;14.432;2023-05-07T04:16:11;18.80;;;9.18;;
78716;SDS011;68045;50.042;14.432;2023-05-07T04:20:16;16.45;;;8.70;;
78716;SDS011;68045;50.042;14.432;2023-05-07T04:24:21;16.90;;;8.82;;
78716;SDS011;68045;50.042;14.432;2023-05-07T04:28:23;11.13;;;6.95;;
78716;SDS011;68045;50.042;14.432;2023-05-07T04:32:25;15.15;;;7.47;;
78716;SDS011;68045;50.042;14.432;2023-05-07T04:36:27;13.85;;;7.90;;
78716;SDS011;68045;50.042;14.432;2023-05-07T04:40:36;13.18;;;6.97;;
78716;SDS011;68045;50.042;14.432;2023-05-07T04:44:38;13.63;;;6.82;;
78716;SDS011;68045;50.042;14.432;2023-05-07T04:48:39;11.27;;;6.45;;
78716;SDS011;68045;50.042;14.432;2023-05-07T04:52:41;13.70;;;6.97;;
78716;SDS011;68045;50.042;14.432;2023-05-07T04:56:42;11.10;;;6.22;;
78716;SDS011;68045;50.042;14.432;2023-05-07T05:00:44;13.13;;;7.32;;
78716;SDS011;68045;50.042;14.432;2023-05-07T05:04:45;12.30;;;6.55;;
78716;SDS011;68045;50.042;14.432;2023-05-07T05:08:46;10.98;;;6.30;;
78716;SDS011;68045;50.042;14.432;2023-05-07T05:12:47;11.50;;;6.18;;
78716;SDS011;68045;50.042;14.432;2023-05-07T05:16:48;12.38;;;6.90;;
78716;SDS011;68045;50.042;14.432;2023-05-07T05:20:50;10.40;;;5.88;;
78716;SDS011;68045;50.042;14.432;2023-05-07T05:24:52;10.55;;;6.00;;
78716;SDS011;68045;50.042;14.432;2023-05-07T05:28:53;11.60;;;6.70;;
78716;SDS011;68045;50.042;14.432;2023-05-07T05:32:57;12.55;;;6.32;;
78716;SDS011;68045;50.042;14.432;2023-05-07T05:36:58;9.80;;;5.38;;
78716;SDS011;68045;50.042;14.432;2023-05-07T05:41:00;10.07;;;6.05;;
78716;SDS011;68045;50.042;14.432;2023-05-07T05:45:01;9.43;;;5.20;;
78716;SDS011;68045;50.042;14.432;2023-05-07T05:49:03;9.57;;;5.70;;
78716;SDS011;68045;50.042;14.432;2023-05-07T05:53:05;10.68;;;6.30;;
78716;SDS011;68045;50.042;14.432;2023-05-07T05:57:07;9.40;;;5.45;;
78716;SDS011;68045;50.042;14.432;2023-05-07T06:01:09;9.32;;;5.63;;
78716;SDS011;68045;50.042;14.432;2023-05-07T06:05:11;10.77;;;5.75;;
78716;SDS011;68045;50.042;14.432;2023-05-07T06:09:14;8.70;;;5.53;;
78716;SDS011;68045;50.042;14.432;2023-05-07T06:13:17;11.75;;;6.05;;
78716;SDS011;68045;50.042;14.432;2023-05-07T06:17:18;9.13;;;5.75;;
78716;SDS011;68045;50.042;14.432;2023-05-07T06:21:19;9.48;;;5.72;;
78716;SDS011;68045;50.042;14.432;2023-05-07T06:25:20;12.18;;;6.43;;
78716;SDS011;68045;50.042;14.432;2023-05-07T06:29:21;9.10;;;5.82;;
78716;SDS011;68045;50.042;14.432;2023-05-07T06:33:22;9.95;;;5.50;;
78716;SDS011;68045;50.042;14.432;2023-05-07T06:37:24;12.00;;;6.90;;
78716;SDS011;68045;50.042;14.432;2023-05-07T06:41:32;11.02;;;6.45;;
78716;SDS011;68045;50.042;14.432;2023-05-07T06:49:43;8.77;;;5.57;;
78716;SDS011;68045;50.042;14.432;2023-05-07T06:53:48;8.25;;;5.30;;
78716;SDS011;68045;50.042;14.432;2023-05-07T06:57:49;7.10;;;4.60;;
78716;SDS011;68045;50.042;14.432;2023-05-07T07:01:51;9.05;;;5.45;;
78716;SDS011;68045;50.042;14.432;2023-05-07T07:05:53;8.77;;;5.25;;
78716;SDS011;68045;50.042;14.432;2023-05-07T07:09:55;8.40;;;5.00;;
78716;SDS011;68045;50.042;14.432;2023-05-07T07:13:56;8.23;;;5.05;;
78716;SDS011;68045;50.042;14.432;2023-05-07T07:17:57;9.88;;;5.28;;
78716;SDS011;68045;50.042;14.432;2023-05-07T07:21:59;9.23;;;4.93;;
78716;SDS011;68045;50.042;14.432;2023-05-07T07:26:01;6.82;;;4.70;;
78716;SDS011;68045;50.042;14.432;2023-05-07T07:30:02;8.27;;;5.00;;
78716;SDS011;68045;50.042;14.432;2023-05-07T07:34:07;8.65;;;5.38;;
78716;SDS011;68045;50.042;14.432;2023-05-07T07:38:08;8.60;;;5.80;;
78716;SDS011;68045;50.042;14.432;2023-05-07T07:42:09;8.18;;;4.90;;
78716;SDS011;68045;50.042;14.432;2023-05-07T07:46:10;7.57;;;4.95;;
78716;SDS011;68045;50.042;14.432;2023-05-07T07:50:11;6.25;;;4.60;;
78716;SDS011;68045;50.042;14.432;2023-05-07T07:54:13;7.35;;;4.85;;
78716;SDS011;68045;50.042;14.432;2023-05-07T07:58:15;6.15;;;4.15;;
78716;SDS011;68045;50.042;14.432;2023-05-07T08:02:16;7.30;;;4.53;;
78716;SDS011;68045;50.042;14.432;2023-05-07T08:06:18;7.43;;;4.50;;
78716;SDS011;68045;50.042;14.432;2023-05-07T08:10:19;6.03;;;4.05;;
78716;SDS011;68045;50.042;14.432;2023-05-07T08:14:28;8.18;;;4.80;;
78716;SDS011;68045;50.042;14.432;2023-05-07T08:18:29;7.80;;;4.75;;
78716;SDS011;68045;50.042;14.432;2023-05-07T08:22:32;6.60;;;4.70;;
78716;SDS011;68045;50.042;14.432;2023-05-07T08:26:33;7.85;;;4.85;;
78716;SDS011;68045;50.042;14.432;2023-05-07T08:30:34;7.38;;;4.63;;
78716;SDS011;68045;50.042;14.432;2023-05-07T08:34:35;8.68;;;4.95;;
78716;SDS011;68045;50.042;14.432;2023-05-07T08:38:39;8.80;;;5.00;;
78716;SDS011;68045;50.042;14.432;2023-05-07T08:42:48;8.77;;;5.30;;
78716;SDS011;68045;50.042;14.432;2023-05-07T08:46:50;8.77;;;5.47;;
78716;SDS011;68045;50.042;14.432;2023-05-07T08:50:55;8.85;;;5.88;;
78716;SDS011;68045;50.042;14.432;2023-05-07T08:54:56;8.07;;;5.25;;
78716;SDS011;68045;50.042;14.432;2023-05-07T08:58:59;9.63;;;5.57;;
78716;SDS011;68045;50.042;14.432;2023-05-07T09:03:02;9.77;;;5.07;;
78716;SDS011;68045;50.042;14.432;2023-05-07T09:07:04;9.73;;;5.22;;
78716;SDS011;68045;50.042;14.432;2023-05-07T09:11:08;9.23;;;5.38;;
78716;SDS011;68045;50.042;14.432;2023-05-07T09:15:09;7.38;;;4.82;;
78716;SDS011;68045;50.042;14.432;2023-05-07T09:19:10;8.57;;;5.18;;
78716;SDS011;68045;50.042;14.432;2023-05-07T09:23:16;7.28;;;4.72;;
78716;SDS011;68045;50.042;14.432;2023-05-07T09:31:20;7.38;;;4.28;;
78716;SDS011;68045;50.042;14.432;2023-05-07T09:35:21;9.60;;;5.53;;
78716;SDS011;68045;50.042;14.432;2023-05-07T09:39:42;7.00;;;4.40;;
78716;SDS011;68045;50.042;14.432;2023-05-07T09:43:46;6.93;;;4.57;;
78716;SDS011;68045;50.042;14.432;2023-05-07T09:47:56;8.10;;;5.20;;
78716;SDS011;68045;50.042;14.432;2023-05-07T09:52:00;11.80;;;5.53;;
78716;SDS011;68045;50.042;14.432;2023-05-07T09:56:05;5.57;;;3.85;;
78716;SDS011;68045;50.042;14.432;2023-05-07T10:00:07;8.23;;;4.93;;
78716;SDS011;68045;50.042;14.432;2023-05-07T10:04:21;6.75;;;4.30;;
78716;SDS011;68045;50.042;14.432;2023-05-07T10:08:24;7.80;;;4.93;;
78716;SDS011;68045;50.042;14.432;2023-05-07T10:12:29;8.38;;;4.45;;
78716;SDS011;68045;50.042;14.432;2023-05-07T10:16:36;9.90;;;4.75;;
78716;SDS011;68045;50.042;14.432;2023-05-07T10:20:41;6.78;;;4.65;;
78716;SDS011;68045;50.042;14.432;2023-05-07T10:24:45;6.68;;;4.43;;
78716;SDS011;68045;50.042;14.432;2023-05-07T10:28:53;6.63;;;4.68;;
78716;SDS011;68045;50.042;14.432;2023-05-07T10:33:15;6.60;;;3.70;;
78716;SDS011;68045;50.042;14.432;2023-05-07T10:37:21;7.90;;;4.22;;
78716;SDS011;68045;50.042;14.432;2023-05-07T10:41:24;7.00;;;3.80;;
78716;SDS011;68045;50.042;14.432;2023-05-07T10:45:26;6.85;;;4.30;;
78716;SDS011;68045;50.042;14.432;2023-05-07T10:49:29;6.60;;;4.63;;
78716;SDS011;68045;50.042;14.432;2023-05-07T10:53:35;6.40;;;4.25;;
78716;SDS011;68045;50.042;14.432;2023-05-07T10:57:41;6.93;;;4.28;;
78716;SDS011;68045;50.042;14.432;2023-05-07T11:01:54;7.65;;;4.95;;
78716;SDS011;68045;50.042;14.432;2023-05-07T11:06:13;7.63;;;5.00;;
78716;SDS011;68045;50.042;14.432;2023-05-07T11:15:36;7.55;;;4.30;;
78716;SDS011;68045;50.042;14.432;2023-05-07T11:19:52;7.47;;;4.90;;
78716;SDS011;68045;50.042;14.432;2023-05-07T11:24:21;8.18;;;5.40;;
78716;SDS011;68045;50.042;14.432;2023-05-07T11:28:39;6.82;;;4.43;;
78716;SDS011;68045;50.042;14.432;2023-05-07T11:32:42;7.53;;;4.50;;
78716;SDS011;68045;50.042;14.432;2023-05-07T11:36:44;10.38;;;5.20;;
78716;SDS011;68045;50.042;14.432;2023-05-07T11:40:53;10.43;;;5.85;;
78716;SDS011;68045;50.042;14.432;2023-05-07T11:44:55;7.80;;;4.88;;
78716;SDS011;68045;50.042;14.432;2023-05-07T11:48:57;7.60;;;5.47;;
78716;SDS011;68045;50.042;14.432;2023-05-07T11:52:57;9.30;;;5.68;;
78716;SDS011;68045;50.042;14.432;2023-05-07T11:56:58;8.63;;;5.40;;
78716;SDS011;68045;50.042;14.432;2023-05-07T12:01:00;8.73;;;5.80;;
78716;SDS011;68045;50.042;14.432;2023-05-07T12:05:00;8.88;;;5.70;;
78716;SDS011;68045;50.042;14.432;2023-05-07T12:13:13;10.35;;;5.55;;
78716;SDS011;68045;50.042;14.432;2023-05-07T12:17:21;7.78;;;5.47;;
78716;SDS011;68045;50.042;14.432;2023-05-07T12:21:22;7.20;;;4.90;;
78716;SDS011;68045;50.042;14.432;2023-05-07T12:25:24;8.18;;;5.15;;
78716;SDS011;68045;50.042;14.432;2023-05-07T12:29:25;6.22;;;4.40;;
78716;SDS011;68045;50.042;14.432;2023-05-07T12:33:27;6.70;;;4.30;;
78716;SDS011;68045;50.042;14.432;2023-05-07T12:37:28;7.90;;;4.78;;
78716;SDS011;68045;50.042;14.432;2023-05-07T12:41:29;5.70;;;4.43;;
78716;SDS011;68045;50.042;14.432;2023-05-07T12:45:30;5.78;;;4.28;;
78716;SDS011;68045;50.042;14.432;2023-05-07T12:49:31;7.97;;;4.40;;
78716;SDS011;68045;50.042;14.432;2023-05-07T12:53:41;6.47;;;4.53;;
78716;SDS011;68045;50.042;14.432;2023-05-07T12:57:45;7.88;;;4.50;;
78716;SDS011;68045;50.042;14.432;2023-05-07T13:01:49;4.97;;;3.42;;
78716;SDS011;68045;50.042;14.432;2023-05-07T13:05:51;6.18;;;4.60;;
78716;SDS011;68045;50.042;14.432;2023-05-07T13:09:52;6.28;;;4.22;;
78716;SDS011;68045;50.042;14.432;2023-05-07T13:13:53;6.13;;;4.43;;
78716;SDS011;68045;50.042;14.432;2023-05-07T13:17:54;6.43;;;4.57;;
78716;SDS011;68045;50.042;14.432;2023-05-07T13:21:55;5.90;;;4.57;;
78716;SDS011;68045;50.042;14.432;2023-05-07T13:25:56;6.53;;;4.50;;
78716;SDS011;68045;50.042;14.432;2023-05-07T13:29:58;6.45;;;4.28;;
78716;SDS011;68045;50.042;14.432;2023-05-07T13:33:59;6.60;;;4.30;;
78716;SDS011;68045;50.042;14.432;2023-05-07T13:38:00;6.30;;;4.38;;
78716;SDS011;68045;50.042;14.432;2023-05-07T13:42:01;6.10;;;4.70;;
78716;SDS011;68045;50.042;14.432;2023-05-07T13:46:03;6.75;;;5.05;;
78716;SDS011;68045;50.042;14.432;2023-05-07T13:50:04;7.07;;;4.63;;
78716;SDS011;68045;50.042;14.432;2023-05-07T13:54:05;7.03;;;4.60;;
78716;SDS011;68045;50.042;14.432;2023-05-07T13:58:06;6.65;;;4.20;;
78716;SDS011;68045;50.042;14.432;2023-05-07T14:02:07;7.68;;;4.50;;
78716;SDS011;68045;50.042;14.432;2023-05-07T14:06:09;5.50;;;4.10;;
78716;SDS011;68045;50.042;14.432;2023-05-07T14:10:10;7.15;;;4.47;;
78716;SDS011;68045;50.042;14.432;2023-05-07T14:14:11;6.55;;;4.53;;
78716;SDS011;68045;50.042;14.432;2023-05-07T14:18:12;7.55;;;4.78;;
78716;SDS011;68045;50.042;14.432;2023-05-07T14:22:13;6.63;;;4.18;;
78716;SDS011;68045;50.042;14.432;2023-05-07T14:26:15;6.20;;;4.22;;
78716;SDS011;68045;50.042;14.432;2023-05-07T14:30:16;7.57;;;5.45;;
78716;SDS011;68045;50.042;14.432;2023-05-07T14:34:17;8.25;;;6.07;;
78716;SDS011;68045;50.042;14.432;2023-05-07T14:38:18;7.70;;;5.53;;
78716;SDS011;68045;50.042;14.432;2023-05-07T14:42:19;7.22;;;5.18;;
78716;SDS011;68045;50.042;14.432;2023-05-07T14:50:23;8.73;;;5.10;;
78716;SDS011;68045;50.042;14.432;2023-05-07T14:54:24;8.05;;;5.25;;
78716;SDS011;68045;50.042;14.432;2023-05-07T14:58:25;8.10;;;5.32;;
78716;SDS011;68045;50.042;14.432;2023-05-07T15:02:26;7.65;;;5.43;;
78716;SDS011;68045;50.042;14.432;2023-05-07T15:06:33;6.50;;;5.15;;
78716;SDS011;68045;50.042;14.432;2023-05-07T15:10:35;6.10;;;4.38;;
78716;SDS011;68045;50.042;14.432;2023-05-07T15:14:41;7.35;;;4.93;;
78716;SDS011;68045;50.042;14.432;2023-05-07T15:18:42;5.50;;;4.57;;
78716;SDS011;68045;50.042;14.432;2023-05-07T15:22:43;6.22;;;4.40;;
78716;SDS011;68045;50.042;14.432;2023-05-07T15:26:44;5.10;;;3.30;;
78716;SDS011;68045;50.042;14.432;2023-05-07T15:30:45;6.85;;;4.30;;
78716;SDS011;68045;50.042;14.432;2023-05-07T15:34:46;5.88;;;4.03;;
78716;SDS011;68045;50.042;14.432;2023-05-07T15:38:48;6.47;;;3.80;;
78716;SDS011;68045;50.042;14.432;2023-05-07T15:42:48;4.60;;;3.50;;
78716;SDS011;68045;50.042;14.432;2023-05-07T15:46:50;6.50;;;3.80;;
78716;SDS011;68045;50.042;14.432;2023-05-07T15:50:51;5.63;;;4.00;;
78716;SDS011;68045;50.042;14.432;2023-05-07T15:54:51;6.20;;;4.07;;
78716;SDS011;68045;50.042;14.432;2023-05-07T15:58:52;5.22;;;3.88;;
78716;SDS011;68045;50.042;14.432;2023-05-07T16:02:53;6.63;;;3.88;;
78716;SDS011;68045;50.042;14.432;2023-05-07T16:06:54;5.72;;;4.10;;
78716;SDS011;68045;50.042;14.432;2023-05-07T16:10:56;7.07;;;3.80;;
78716;SDS011;68045;50.042;14.432;2023-05-07T16:14:57;5.53;;;3.90;;
78716;SDS011;68045;50.042;14.432;2023-05-07T16:18:58;5.80;;;3.97;;
78716;SDS011;68045;50.042;14.432;2023-05-07T16:22:58;5.68;;;4.10;;
78716;SDS011;68045;50.042;14.432;2023-05-07T16:26:59;6.63;;;4.32;;
78716;SDS011;68045;50.042;14.432;2023-05-07T16:31:00;7.07;;;4.30;;
78716;SDS011;68045;50.042;14.432;2023-05-07T16:35:01;6.55;;;4.45;;
78716;SDS011;68045;50.042;14.432;2023-05-07T16:39:03;7.13;;;4.63;;
78716;SDS011;68045;50.042;14.432;2023-05-07T16:43:04;8.20;;;5.38;;
78716;SDS011;68045;50.042;14.432;2023-05-07T16:47:06;7.05;;;4.47;;
78716;SDS011;68045;50.042;14.432;2023-05-07T16:51:07;7.70;;;4.72;;
78716;SDS011;68045;50.042;14.432;2023-05-07T16:55:09;7.22;;;5.03;;
78716;SDS011;68045;50.042;14.432;2023-05-07T16:59:10;7.32;;;4.60;;
78716;SDS011;68045;50.042;14.432;2023-05-07T17:03:11;6.95;;;4.78;;
78716;SDS011;68045;50.042;14.432;2023-05-07T17:07:12;6.70;;;4.45;;
78716;SDS011;68045;50.042;14.432;2023-05-07T17:11:14;6.57;;;4.50;;
78716;SDS011;68045;50.042;14.432;2023-05-07T17:15:15;8.15;;;5.07;;
78716;SDS011;68045;50.042;14.432;2023-05-07T17:19:15;6.50;;;4.32;;
78716;SDS011;68045;50.042;14.432;2023-05-07T17:23:16;9.13;;;5.25;;
78716;SDS011;68045;50.042;14.432;2023-05-07T17:27:17;8.18;;;5.15;;
78716;SDS011;68045;50.042;14.432;2023-05-07T17:31:20;9.25;;;4.90;;
78716;SDS011;68045;50.042;14.432;2023-05-07T17:35:21;7.03;;;4.80;;
78716;SDS011;68045;50.042;14.432;2023-05-07T17:39:22;7.65;;;4.88;;
78716;SDS011;68045;50.042;14.432;2023-05-07T17:43:23;8.07;;;5.07;;
78716;SDS011;68045;50.042;14.432;2023-05-07T17:47:24;7.70;;;4.68;;
78716;SDS011;68045;50.042;14.432;2023-05-07T17:51:25;7.03;;;4.55;;
78716;SDS011;68045;50.042;14.432;2023-05-07T17:55:27;7.38;;;4.97;;
78716;SDS011;68045;50.042;14.432;2023-05-07T17:59:30;7.53;;;5.03;;
78716;SDS011;68045;50.042;14.432;2023-05-07T18:03:31;7.05;;;5.10;;
78716;SDS011;68045;50.042;14.432;2023-05-07T18:11:35;6.75;;;4.82;;
78716;SDS011;68045;50.042;14.432;2023-05-07T18:15:37;9.32;;;5.18;;
78716;SDS011;68045;50.042;14.432;2023-05-07T18:19:38;7.03;;;4.30;;
78716;SDS011;68045;50.042;14.432;2023-05-07T18:23:39;8.10;;;5.07;;
78716;SDS011;68045;50.042;14.432;2023-05-07T18:27:40;7.20;;;4.85;;
78716;SDS011;68045;50.042;14.432;2023-05-07T18:31:40;7.78;;;5.13;;
78716;SDS011;68045;50.042;14.432;2023-05-07T18:35:41;9.82;;;5.78;;
78716;SDS011;68045;50.042;14.432;2023-05-07T18:39:42;9.82;;;5.65;;
78716;SDS011;68045;50.042;14.432;2023-05-07T18:43:43;7.53;;;4.85;;
78716;SDS011;68045;50.042;14.432;2023-05-07T18:47:44;7.43;;;4.70;;
78716;SDS011;68045;50.042;14.432;2023-05-07T18:51:45;8.23;;;5.35;;
78716;SDS011;68045;50.042;14.432;2023-05-07T18:55:49;8.73;;;5.65;;
78716;SDS011;68045;50.042;14.432;2023-05-07T18:59:51;6.63;;;4.85;;
78716;SDS011;68045;50.042;14.432;2023-05-07T19:03:54;7.68;;;5.32;;
78716;SDS011;68045;50.042;14.432;2023-05-07T19:07:55;8.57;;;5.38;;
78716;SDS011;68045;50.042;14.432;2023-05-07T19:11:56;8.63;;;5.00;;
78716;SDS011;68045;50.042;14.432;2023-05-07T19:15:58;7.80;;;5.30;;
78716;SDS011;68045;50.042;14.432;2023-05-07T19:19:58;7.88;;;5.05;;
78716;SDS011;68045;50.042;14.432;2023-05-07T19:23:59;9.52;;;5.55;;
78716;SDS011;68045;50.042;14.432;2023-05-07T19:28:00;10.93;;;5.65;;
78716;SDS011;68045;50.042;14.432;2023-05-07T19:32:01;9.13;;;5.47;;
78716;SDS011;68045;50.042;14.432;2023-05-07T19:36:02;10.57;;;5.75;;
78716;SDS011;68045;50.042;14.432;2023-05-07T19:40:03;9.77;;;5.15;;
78716;SDS011;68045;50.042;14.432;2023-05-07T19:44:06;7.32;;;4.70;;
78716;SDS011;68045;50.042;14.432;2023-05-07T19:48:07;8.68;;;5.18;;
78716;SDS011;68045;50.042;14.432;2023-05-07T19:52:07;8.88;;;5.28;;
78716;SDS011;68045;50.042;14.432;2023-05-07T19:56:09;9.23;;;5.30;;
78716;SDS011;68045;50.042;14.432;2023-05-07T20:00:11;9.30;;;5.40;;
78716;SDS011;68045;50.042;14.432;2023-05-07T20:04:15;7.72;;;4.90;;
78716;SDS011;68045;50.042;14.432;2023-05-07T20:08:16;9.32;;;5.63;;
78716;SDS011;68045;50.042;14.432;2023-05-07T20:12:17;9.98;;;5.22;;
78716;SDS011;68045;50.042;14.432;2023-05-07T20:16:18;9.90;;;5.18;;
78716;SDS011;68045;50.042;14.432;2023-05-07T20:20:19;10.95;;;5.50;;
78716;SDS011;68045;50.042;14.432;2023-05-07T20:24:20;9.70;;;5.43;;
78716;SDS011;68045;50.042;14.432;2023-05-07T20:28:21;11.07;;;5.75;;
78716;SDS011;68045;50.042;14.432;2023-05-07T20:32:22;10.13;;;5.63;;
78716;SDS011;68045;50.042;14.432;2023-05-07T20:36:23;9.90;;;5.72;;
78716;SDS011;68045;50.042;14.432;2023-05-07T20:40:25;7.95;;;5.28;;
78716;SDS011;68045;50.042;14.432;2023-05-07T20:44:27;9.48;;;5.38;;
78716;SDS011;68045;50.042;14.432;2023-05-07T20:48:30;11.40;;;6.15;;
78716;SDS011;68045;50.042;14.432;2023-05-07T20:52:30;9.75;;;5.45;;
78716;SDS011;68045;50.042;14.432;2023-05-07T20:56:31;11.35;;;6.00;;
78716;SDS011;68045;50.042;14.432;2023-05-07T21:00:32;9.70;;;6.00;;
78716;SDS011;68045;50.042;14.432;2023-05-07T21:04:33;11.40;;;5.90;;
78716;SDS011;68045;50.042;14.432;2023-05-07T21:08:35;10.00;;;5.60;;
78716;SDS011;68045;50.042;14.432;2023-05-07T21:12:36;11.05;;;6.50;;
78716;SDS011;68045;50.042;14.432;2023-05-07T21:16:39;10.88;;;6.38;;
78716;SDS011;68045;50.042;14.432;2023-05-07T21:20:42;11.00;;;6.35;;
78716;SDS011;68045;50.042;14.432;2023-05-07T21:24:42;9.80;;;6.40;;
78716;SDS011;68045;50.042;14.432;2023-05-07T21:28:44;11.57;;;5.75;;
78716;SDS011;68045;50.042;14.432;2023-05-07T21:32:45;11.55;;;6.60;;
78716;SDS011;68045;50.042;14.432;2023-05-07T21:36:46;12.38;;;6.93;;
78716;SDS011;68045;50.042;14.432;2023-05-07T21:40:47;11.07;;;6.82;;
78716;SDS011;68045;50.042;14.432;2023-05-07T21:44:48;10.82;;;6.57;;
78716;SDS011;68045;50.042;14.432;2023-05-07T21:48:49;11.00;;;6.85;;
78716;SDS011;68045;50.042;14.432;2023-05-07T21:52:50;13.25;;;7.40;;
78716;SDS011;68045;50.042;14.432;2023-05-07T21:56:51;11.65;;;7.18;;
78716;SDS011;68045;50.042;14.432;2023-05-07T22:00:53;11.90;;;7.07;;
78716;SDS011;68045;50.042;14.432;2023-05-07T22:04:54;10.40;;;6.15;;
78716;SDS011;68045;50.042;14.432;2023-05-07T22:08:55;16.75;;;7.45;;
78716;SDS011;68045;50.042;14.432;2023-05-07T22:12:56;11.60;;;6.40;;
78716;SDS011;68045;50.042;14.432;2023-05-07T22:16:57;12.93;;;6.78;;
78716;SDS011;68045;50.042;14.432;2023-05-07T22:20:58;11.13;;;7.05;;
78716;SDS011;68045;50.042;14.432;2023-05-07T22:24:58;15.52;;;6.38;;
78716;SDS011;68045;50.042;14.432;2023-05-07T22:29:00;10.90;;;6.78;;
78716;SDS011;68045;50.042;14.432;2023-05-07T22:33:00;11.70;;;6.85;;
78716;SDS011;68045;50.042;14.432;2023-05-07T22:37:01;12.82;;;6.80;;
78716;SDS011;68045;50.042;14.432;2023-05-07T22:41:02;13.95;;;6.18;;
78716;SDS011;68045;50.042;14.432;2023-05-07T22:45:03;11.77;;;6.38;;
78716;SDS011;68045;50.042;14.432;2023-05-07T22:49:05;11.85;;;6.68;;
78716;SDS011;68045;50.042;14.432;2023-05-07T22:53:06;10.65;;;6.38;;
78716;SDS011;68045;50.042;14.432;2023-05-07T22:57:07;10.65;;;6.15;;
78716;SDS011;68045;50.042;14.432;2023-05-07T23:01:12;13.13;;;6.72;;
78716;SDS011;68045;50.042;14.432;2023-05-07T23:05:14;10.38;;;5.90;;
78716;SDS011;68045;50.042;14.432;2023-05-07T23:09:15;10.77;;;6.68;;
78716;SDS011;68045;50.042;14.432;2023-05-07T23:13:16;10.52;;;6.30;;
78716;SDS011;68045;50.042;14.432;2023-05-07T23:17:17;9.82;;;6.35;;
78716;SDS011;68045;50.042;14.432;2023-05-07T23:21:18;10.80;;;6.32;;
78716;SDS011;68045;50.042;14.432;2023-05-07T23:25:18;10.93;;;6.63;;
78716;SDS011;68045;50.042;14.432;2023-05-07T23:29:19;13.23;;;6.80;;
78716;SDS011;68045;50.042;14.432;2023-05-07T23:33:20;11.50;;;7.28;;
78716;SDS011;68045;50.042;14.432;2023-05-07T23:37:21;10.43;;;6.18;;
78716;SDS011;68045;50.042;14.432;2023-05-07T23:41:23;12.13;;;6.70;;
78716;SDS011;68045;50.042;14.432;2023-05-07T23:45:24;12.50;;;6.60;;
78716;SDS011;68045;50.042;14.432;2023-05-07T23:49:25;12.40;;;6.35;;
78716;SDS011;68045;50.042;14.432;2023-05-07T23:53:26;12.07;;;6.45;;
78716;SDS011;68045;50.042;14.432;2023-05-07T23:57:27;10.63;;;6.30;;
